OMDBOMFJ

Guest
Details From OMDB - DUBAI INTL
To OMFJ - FUJAIRAH INTL
Flight Number -
Tags generated
Created
Modified
Stats Distance 54 nm / 99 km
Max Altitude 4,400 ft / 1,341 m
Waypoints 3
Social Downloads 1
Likes 0
Share VATSIM

Download

Looking for another format? Having issues loading an existing format? Contact us
Advertisement - Login to hide

Notes

Basic altitude profile: - Ascent Rate: 2500ft/min - Ascent Speed: 250kts - Cruise Altitude: 35000ft - Cruise Speed: 420kts - Descent Rate: 1500ft/min - Descent Speed: 250kts Options: - Use NATs: yes - Use PACOTS: yes - Use low airways: yes - Use high airways: yes

Route

OMDB AVAMI OMFJ

ID Type Via Altitude Latitude Longitude Leg Dist Tot Dist Heading (true) Name
O OMDB APT - 0 ft / 0 m 25.25491˚ 55.36426˚ - 0 nm - DUBAI INTL
AVAMI FIX - 4,400 ft / 1,341 m 25.09833˚ 55.94639˚ 33 nm 33 nm 106° / 107° -
O OMFJ APT - 0 ft / 0 m 25.11212˚ 56.32422˚ 20 nm 53 nm 88° / 88° FUJAIRAH INTL

Altitude Profile

Advertisement - Login to hide

OMDB

Details ICAO OMDB (DXB)
Name DUBAI INTL
Region United Arab Emirates
Timezone Asia/Dubai (UTC+4.0)
Stats Elevation 62 ft / 19 m (AMSL)
Location 25.254912° 55.364260°
Runways 2
Magnetic Variation 2.068° E

METAR

OMDB 261200Z 32013KT CAVOK 35/20 Q1005 NOSIG

Decode

TAF

TAF OMDB 261101Z 2612/2718 33014KT CAVOK BECMG 2616/2618 07005KT BECMG 2702/2704 16010KT BECMG 2708/2710 31012KT BECMG 2715/2717 06005KT

Decode

Departure Runways

ID Width Length Bearing (true) Bearing (mag) Surface Threshold Offset Overrun Length
12L 197 ft / 60 m 13,124 ft / 4,000 m 121.49° 119.42° Asphalt 1,312 ft / 400 m 395 ft / 120 m
12R 151 ft / 46 m 13,139 ft / 4,005 m 121.48° 119.41° Asphalt 394 ft / 120 m 197 ft / 60 m
30L 151 ft / 46 m 13,139 ft / 4,005 m 301.50° 299.43° Asphalt 2,953 ft / 900 m 197 ft / 60 m
30R 197 ft / 60 m 13,124 ft / 4,000 m 301.51° 299.44° Asphalt 0 ft / 0 m 395 ft / 120 m

OMFJ

Details ICAO OMFJ (FJR)
Name FUJAIRAH INTL
Region United Arab Emirates
Timezone Asia/Dubai (UTC+4.0)
Stats Elevation 152 ft / 46 m (AMSL)
Location 25.112116° 56.324217°
Runways 1
Magnetic Variation 1.944° E

METAR

OMFJ 261200Z 11007KT 090V150 7000 NSC 34/22 Q1004 RMK A2967

Decode

TAF

TAF OMFJ 261100Z 2612/2718 10008KT 7000 NSC BECMG 2615/2617 16005KT PROB30 2700/2704 VRB03KT 5000 HZ BECMG 2704/2706 09010KT

Decode

Destination Runways

ID Width Length Bearing (true) Bearing (mag) Surface Threshold Offset Overrun Length
11 148 ft / 45 m 12,296 ft / 3,748 m 112.53° 110.59° Asphalt 2,296 ft / 700 m 328 ft / 100 m
29 148 ft / 45 m 12,296 ft / 3,748 m 292.55° 290.61° Asphalt 0 ft / 0 m 328 ft / 100 m

Approach Navaids

Runway Type Ident Frequency Range Bearing (true) Bearing (mag) Slope Elevation
29 Localiser IFJR 111.50 MHz 18 nm / 33 km 292.53° 290.59° - 152 ft / 46 m (AMSL)
29 Glidescope IFJR 111.50 MHz 10 nm / 19 km 292.54° 290.60° 3.00° 152 ft / 46 m (AMSL)

Popular Alternatives